Terminal Aerodrome Forecast
Issued by NWS Jackson, MS

Home | Current Version | Previous Version | Text Only | Print | Product List | Glossary On
Versions: 1 2 3 4 5 6 7 8 9 10 11 12
000
FTUS44 KJAN 272339
TAFGWO
TAF
KGWO 272339Z 2800/2824 19009KT P6SM SCT040
     FM280900 20010KT P6SM VCTS SCT015 SCT040CB
     FM281200 20012KT P6SM -SHRA VCTS BKN015CB OVC050
     FM281600 21012G20KT P6SM SCT025 BKN035=

USA.gov is the U.S. government's official web portal to all federal, state and local government web resources and services.